VIV0345 MMMY-MMGL
Flight info
| Callsign | VIV0345 |
|---|---|
| Flight time | 1h 6m |
| Altitude | 34000 |
| Route | KERG1A/12 KERGA UT44 MEZCA MEZCA1B |
| Aircraft | A320/M-SDE3FGHIRWY/LB1 |
Departure
| Time | 2026-04-22 03:02 |
|---|---|
| Airport | Monterrey International Airport (MMMY) |
Arrival
| Time | 2026-04-22 04:09 |
|---|---|
| Airport | Guadalajara International Airport (MMGL) |
| Time | Latitude | Longitude | Altitude | Speed | Heading |
|---|---|---|---|---|---|
| 2026-04-22 01:54 | 25.77802 | -100.11369 | 1276 ft | 0 kts | 30° |
| 2026-04-22 02:33 | 25.77788 | -100.11378 | 1276 ft | 3 kts | 30° |
| 2026-04-22 02:33 | 25.77773 | -100.11388 | 1275 ft | 3 kts | 30° |
| 2026-04-22 02:33 | 25.77758 | -100.11396 | 1276 ft | 2 kts | 46° |
| 2026-04-22 02:34 | 25.77751 | -100.11413 | 1278 ft | 2 kts | 119° |
| 2026-04-22 02:34 | 25.77752 | -100.11415 | 1278 ft | 0 kts | 121° |
| 2026-04-22 02:45 | 25.77747 | -100.11406 | 1276 ft | 3 kts | 122° |
| 2026-04-22 02:46 | 25.77732 | -100.11380 | 1275 ft | 5 kts | 122° |
| 2026-04-22 02:46 | 25.77708 | -100.11337 | 1275 ft | 8 kts | 122° |
| 2026-04-22 02:46 | 25.77695 | -100.11314 | 1274 ft | 4 kts | 121° |
| 2026-04-22 02:46 | 25.77689 | -100.11279 | 1274 ft | 6 kts | 87° |
| 2026-04-22 02:47 | 25.77713 | -100.11237 | 1274 ft | 7 kts | 43° |
| 2026-04-22 02:47 | 25.77759 | -100.11197 | 1274 ft | 9 kts | 36° |
| 2026-04-22 02:47 | 25.77818 | -100.11152 | 1274 ft | 11 kts | 33° |
| 2026-04-22 02:47 | 25.77883 | -100.11155 | 1275 ft | 10 kts | 314° |
| 2026-04-22 02:48 | 25.77917 | -100.11213 | 1275 ft | 0 kts | 300° |
| 2026-04-22 02:49 | 25.77919 | -100.11217 | 1275 ft | 1 kts | 299° |
| 2026-04-22 02:49 | 25.77923 | -100.11226 | 1276 ft | 2 kts | 299° |
| 2026-04-22 02:49 | 25.77930 | -100.11239 | 1276 ft | 2 kts | 299° |
| 2026-04-22 02:50 | 25.77939 | -100.11255 | 1276 ft | 3 kts | 301° |
| 2026-04-22 02:50 | 25.77941 | -100.11259 | 1276 ft | 0 kts | 301° |
| 2026-04-22 02:54 | 25.77942 | -100.11261 | 1276 ft | 1 kts | 301° |
| 2026-04-22 02:54 | 25.77954 | -100.11283 | 1278 ft | 6 kts | 301° |
| 2026-04-22 02:54 | 25.77980 | -100.11331 | 1277 ft | 11 kts | 301° |
| 2026-04-22 02:55 | 25.78048 | -100.11454 | 1280 ft | 22 kts | 301° |
| 2026-04-22 02:55 | 25.78128 | -100.11597 | 1282 ft | 22 kts | 301° |
| 2026-04-22 02:55 | 25.78197 | -100.11724 | 1285 ft | 14 kts | 301° |
| 2026-04-22 02:55 | 25.78239 | -100.11790 | 1288 ft | 0 kts | 318° |
| 2026-04-22 02:57 | 25.78243 | -100.11792 | 1289 ft | 2 kts | 323° |
| 2026-04-22 02:58 | 25.78275 | -100.11798 | 1287 ft | 7 kts | 7° |
| 2026-04-22 02:58 | 25.78316 | -100.11778 | 1288 ft | 0 kts | 29° |
| 2026-04-22 02:58 | 25.78318 | -100.11777 | 1288 ft | 2 kts | 29° |
| 2026-04-22 02:59 | 25.78346 | -100.11758 | 1288 ft | 8 kts | 33° |
| 2026-04-22 02:59 | 25.78394 | -100.11696 | 1288 ft | 14 kts | 80° |
| 2026-04-22 02:59 | 25.78376 | -100.11633 | 1288 ft | 0 kts | 119° |
| 2026-04-22 03:01 | 25.78355 | -100.11597 | 1287 ft | 26 kts | 123° |
| 2026-04-22 03:01 | 25.78132 | -100.11196 | 1276 ft | 93 kts | 122° |
| 2026-04-22 03:01 | 25.77696 | -100.10411 | 1267 ft | 143 kts | 122° |
| 2026-04-22 03:02 | 25.77112 | -100.09348 | 1387 ft | 172 kts | 121° |
| 2026-04-22 03:02 | 25.76497 | -100.08202 | 2024 ft | 175 kts | 121° |
| 2026-04-22 03:02 | 25.75864 | -100.07050 | 2672 ft | 178 kts | 122° |
| 2026-04-22 03:02 | 25.75186 | -100.05828 | 2998 ft | 201 kts | 122° |
| 2026-04-22 03:03 | 25.74409 | -100.04428 | 3398 ft | 224 kts | 122° |
| 2026-04-22 03:03 | 25.73501 | -100.02912 | 3786 ft | 247 kts | 133° |
| 2026-04-22 03:03 | 25.72053 | -100.01849 | 4453 ft | 256 kts | 162° |
| 2026-04-22 03:03 | 25.70277 | -100.01614 | 5294 ft | 260 kts | 177° |
| 2026-04-22 03:04 | 25.68450 | -100.01576 | 6070 ft | 265 kts | 178° |
| 2026-04-22 03:04 | 25.66578 | -100.01555 | 6777 ft | 272 kts | 178° |
| 2026-04-22 03:04 | 25.64659 | -100.01536 | 7455 ft | 278 kts | 179° |
| 2026-04-22 03:04 | 25.62699 | -100.01514 | 8159 ft | 283 kts | 180° |
| 2026-04-22 03:05 | 25.60709 | -100.01489 | 8819 ft | 290 kts | 180° |
| 2026-04-22 03:05 | 25.58668 | -100.01460 | 9462 ft | 296 kts | 181° |
| 2026-04-22 03:05 | 25.56619 | -100.01429 | 10090 ft | 302 kts | 181° |
| 2026-04-22 03:05 | 25.54471 | -100.01397 | 10419 ft | 319 kts | 181° |
| 2026-04-22 03:06 | 25.52175 | -100.01366 | 10545 ft | 341 kts | 181° |
| 2026-04-22 03:06 | 25.49751 | -100.01332 | 10891 ft | 353 kts | 181° |
| 2026-04-22 03:06 | 25.47281 | -100.01293 | 11451 ft | 357 kts | 182° |
| 2026-04-22 03:06 | 25.44787 | -100.01251 | 12057 ft | 359 kts | 182° |
| 2026-04-22 03:07 | 25.42279 | -100.01210 | 12671 ft | 362 kts | 182° |
| 2026-04-22 03:07 | 25.39756 | -100.01170 | 13283 ft | 365 kts | 183° |
| 2026-04-22 03:07 | 25.37206 | -100.01131 | 13894 ft | 367 kts | 184° |
| 2026-04-22 03:07 | 25.34644 | -100.01094 | 14424 ft | 369 kts | 184° |
| 2026-04-22 03:08 | 25.32062 | -100.01056 | 15003 ft | 371 kts | 184° |
| 2026-04-22 03:08 | 25.29474 | -100.01016 | 15577 ft | 373 kts | 183° |
| 2026-04-22 03:08 | 25.26872 | -100.00973 | 16140 ft | 375 kts | 184° |
| 2026-04-22 03:08 | 25.24253 | -100.00934 | 16688 ft | 377 kts | 184° |
| 2026-04-22 03:09 | 25.21622 | -100.00895 | 17236 ft | 379 kts | 184° |
| 2026-04-22 03:09 | 25.18968 | -100.00852 | 17783 ft | 382 kts | 184° |
| 2026-04-22 03:09 | 25.16303 | -100.00808 | 18345 ft | 384 kts | 185° |
| 2026-04-22 03:09 | 25.13625 | -100.00767 | 18870 ft | 387 kts | 184° |
| 2026-04-22 03:10 | 25.10915 | -100.00726 | 19349 ft | 391 kts | 184° |
| 2026-04-22 03:10 | 25.08188 | -100.00683 | 19694 ft | 392 kts | 184° |
| 2026-04-22 03:10 | 25.05487 | -100.00641 | 20029 ft | 394 kts | 185° |
| 2026-04-22 03:10 | 25.02750 | -100.00599 | 20130 ft | 393 kts | 184° |
| 2026-04-22 03:11 | 25.00003 | -100.00558 | 20147 ft | 395 kts | 184° |
| 2026-04-22 03:11 | 24.97261 | -100.00631 | 20170 ft | 394 kts | 191° |
| 2026-04-22 03:11 | 24.94576 | -100.01195 | 20648 ft | 391 kts | 200° |
| 2026-04-22 03:11 | 24.92033 | -100.02215 | 21160 ft | 388 kts | 210° |
| 2026-04-22 03:12 | 24.89673 | -100.03637 | 21628 ft | 387 kts | 215° |
| 2026-04-22 03:12 | 24.85014 | -100.06675 | 22463 ft | 392 kts | 216° |
| 2026-04-22 03:12 | 24.82692 | -100.08189 | 22904 ft | 394 kts | 216° |
| 2026-04-22 03:13 | 24.80322 | -100.09732 | 23310 ft | 397 kts | 216° |
| 2026-04-22 03:13 | 24.77944 | -100.11284 | 23746 ft | 398 kts | 216° |
| 2026-04-22 03:13 | 24.75554 | -100.12845 | 24117 ft | 401 kts | 216° |
| 2026-04-22 03:13 | 24.73152 | -100.14412 | 24504 ft | 402 kts | 216° |
| 2026-04-22 03:14 | 24.70738 | -100.15986 | 24859 ft | 404 kts | 216° |
| 2026-04-22 03:14 | 24.68314 | -100.17565 | 25223 ft | 406 kts | 216° |
| 2026-04-22 03:14 | 24.65877 | -100.19152 | 25562 ft | 408 kts | 216° |
| 2026-04-22 03:14 | 24.63564 | -100.20656 | 25874 ft | 411 kts | 216° |
| 2026-04-22 03:15 | 24.61089 | -100.22260 | 26201 ft | 414 kts | 216° |
| 2026-04-22 03:15 | 24.58604 | -100.23867 | 26551 ft | 415 kts | 216° |
| 2026-04-22 03:15 | 24.56114 | -100.25482 | 26920 ft | 417 kts | 216° |
| 2026-04-22 03:15 | 24.53610 | -100.27109 | 27289 ft | 418 kts | 216° |
| 2026-04-22 03:16 | 24.51101 | -100.28741 | 27630 ft | 420 kts | 216° |
| 2026-04-22 03:16 | 24.48581 | -100.30378 | 27991 ft | 422 kts | 216° |
| 2026-04-22 03:16 | 24.46049 | -100.32021 | 28362 ft | 423 kts | 216° |
| 2026-04-22 03:16 | 24.43504 | -100.33671 | 28725 ft | 425 kts | 216° |
| 2026-04-22 03:17 | 24.40952 | -100.35324 | 29082 ft | 427 kts | 216° |
| 2026-04-22 03:17 | 24.38390 | -100.36981 | 29474 ft | 427 kts | 216° |
| 2026-04-22 03:17 | 24.35834 | -100.38629 | 29990 ft | 425 kts | 216° |
| 2026-04-22 03:17 | 24.33287 | -100.40273 | 30470 ft | 423 kts | 216° |
| 2026-04-22 03:18 | 24.30758 | -100.41908 | 30921 ft | 421 kts | 216° |
| 2026-04-22 03:18 | 24.28244 | -100.43533 | 31350 ft | 418 kts | 216° |
| 2026-04-22 03:18 | 24.25775 | -100.45128 | 31802 ft | 416 kts | 216° |
| 2026-04-22 03:18 | 24.23288 | -100.46733 | 32252 ft | 413 kts | 216° |
| 2026-04-22 03:19 | 24.20818 | -100.48327 | 32713 ft | 411 kts | 216° |
| 2026-04-22 03:19 | 24.18359 | -100.49912 | 33178 ft | 409 kts | 216° |
| 2026-04-22 03:19 | 24.15917 | -100.51489 | 33632 ft | 406 kts | 217° |
| 2026-04-22 03:19 | 24.13488 | -100.53056 | 34017 ft | 405 kts | 217° |
| 2026-04-22 03:20 | 24.08611 | -100.56210 | 34112 ft | 410 kts | 217° |
| 2026-04-22 03:20 | 24.03673 | -100.59383 | 34093 ft | 412 kts | 217° |
| 2026-04-22 03:21 | 23.98710 | -100.62563 | 34098 ft | 414 kts | 216° |
| 2026-04-22 03:21 | 23.93745 | -100.65756 | 34098 ft | 414 kts | 216° |
| 2026-04-22 03:22 | 23.88805 | -100.68933 | 34102 ft | 414 kts | 216° |
| 2026-04-22 03:22 | 23.83833 | -100.72120 | 34089 ft | 414 kts | 216° |
| 2026-04-22 03:23 | 23.78854 | -100.75305 | 34089 ft | 414 kts | 216° |
| 2026-04-22 03:23 | 23.73869 | -100.78488 | 34097 ft | 415 kts | 216° |
| 2026-04-22 03:24 | 23.68891 | -100.81662 | 34098 ft | 415 kts | 216° |
| 2026-04-22 03:24 | 23.63908 | -100.84851 | 34080 ft | 415 kts | 216° |
| 2026-04-22 03:25 | 23.58953 | -100.88015 | 34093 ft | 415 kts | 216° |
| 2026-04-22 03:25 | 23.53963 | -100.91198 | 34104 ft | 416 kts | 216° |
| 2026-04-22 03:26 | 23.49131 | -100.94599 | 34119 ft | 412 kts | 221° |
| 2026-04-22 03:26 | 23.44504 | -100.98287 | 34131 ft | 412 kts | 221° |
| 2026-04-22 03:27 | 23.39867 | -101.01959 | 34126 ft | 412 kts | 221° |
| 2026-04-22 03:27 | 23.35228 | -101.05628 | 34106 ft | 412 kts | 220° |
| 2026-04-22 03:28 | 23.30591 | -101.09292 | 34123 ft | 412 kts | 220° |
| 2026-04-22 03:28 | 23.25955 | -101.12963 | 34124 ft | 412 kts | 220° |
| 2026-04-22 03:29 | 23.21317 | -101.16641 | 34126 ft | 413 kts | 220° |
| 2026-04-22 03:29 | 23.16670 | -101.20322 | 34133 ft | 413 kts | 220° |
| 2026-04-22 03:30 | 23.12017 | -101.23995 | 34135 ft | 413 kts | 220° |
| 2026-04-22 03:30 | 23.07361 | -101.27658 | 34140 ft | 413 kts | 220° |
| 2026-04-22 03:31 | 23.02699 | -101.31329 | 34145 ft | 414 kts | 221° |
| 2026-04-22 03:31 | 22.98066 | -101.34976 | 34118 ft | 414 kts | 220° |
| 2026-04-22 03:32 | 22.93399 | -101.38650 | 34124 ft | 415 kts | 220° |
| 2026-04-22 03:32 | 22.88727 | -101.42329 | 34126 ft | 415 kts | 220° |
| 2026-04-22 03:33 | 22.84042 | -101.46004 | 34116 ft | 416 kts | 220° |
| 2026-04-22 03:33 | 22.79357 | -101.49674 | 34120 ft | 416 kts | 220° |
| 2026-04-22 03:34 | 22.74665 | -101.53349 | 34126 ft | 416 kts | 220° |
| 2026-04-22 03:34 | 22.69979 | -101.57026 | 34130 ft | 416 kts | 220° |
| 2026-04-22 03:35 | 22.65322 | -101.60675 | 34092 ft | 416 kts | 220° |
| 2026-04-22 03:35 | 22.60628 | -101.64342 | 34097 ft | 417 kts | 220° |
| 2026-04-22 03:36 | 22.55925 | -101.68017 | 34117 ft | 417 kts | 220° |
| 2026-04-22 03:36 | 22.51227 | -101.71690 | 34117 ft | 417 kts | 220° |
| 2026-04-22 03:37 | 22.46519 | -101.75363 | 34101 ft | 417 kts | 220° |
| 2026-04-22 03:37 | 22.41818 | -101.79025 | 34099 ft | 416 kts | 220° |
| 2026-04-22 03:38 | 22.37116 | -101.82689 | 34096 ft | 416 kts | 220° |
| 2026-04-22 03:38 | 22.32418 | -101.86350 | 34072 ft | 417 kts | 220° |
| 2026-04-22 03:39 | 22.27708 | -101.90003 | 34056 ft | 417 kts | 220° |
| 2026-04-22 03:39 | 22.22995 | -101.93665 | 34063 ft | 418 kts | 220° |
| 2026-04-22 03:40 | 22.18299 | -101.97308 | 34067 ft | 418 kts | 220° |
| 2026-04-22 03:40 | 22.13574 | -102.00969 | 34076 ft | 418 kts | 220° |
| 2026-04-22 03:41 | 22.08852 | -102.04629 | 34075 ft | 418 kts | 220° |
| 2026-04-22 03:41 | 22.04110 | -102.08296 | 34065 ft | 419 kts | 220° |
| 2026-04-22 03:42 | 21.99376 | -102.11958 | 34054 ft | 419 kts | 220° |
| 2026-04-22 03:42 | 21.94652 | -102.15590 | 34055 ft | 421 kts | 219° |
| 2026-04-22 03:43 | 21.89751 | -102.19067 | 34062 ft | 423 kts | 217° |
| 2026-04-22 03:43 | 21.84772 | -102.22454 | 34063 ft | 423 kts | 217° |
| 2026-04-22 03:44 | 21.79808 | -102.25863 | 34069 ft | 423 kts | 217° |
| 2026-04-22 03:44 | 21.74839 | -102.29319 | 33076 ft | 431 kts | 218° |
| 2026-04-22 03:45 | 21.72377 | -102.31035 | 32656 ft | 425 kts | 217° |
| 2026-04-22 03:45 | 21.69990 | -102.32861 | 32113 ft | 419 kts | 223° |
| 2026-04-22 03:45 | 21.67709 | -102.34793 | 31573 ft | 416 kts | 223° |
| 2026-04-22 03:45 | 21.65438 | -102.36715 | 31019 ft | 414 kts | 222° |
| 2026-04-22 03:46 | 21.63179 | -102.38624 | 30490 ft | 412 kts | 222° |
| 2026-04-22 03:46 | 21.60924 | -102.40524 | 29866 ft | 412 kts | 222° |
| 2026-04-22 03:46 | 21.58616 | -102.42470 | 29293 ft | 432 kts | 222° |
| 2026-04-22 03:46 | 21.56220 | -102.44494 | 28689 ft | 442 kts | 222° |
| 2026-04-22 03:47 | 21.53779 | -102.46550 | 28081 ft | 448 kts | 221° |
| 2026-04-22 03:47 | 21.51322 | -102.48618 | 27477 ft | 451 kts | 221° |
| 2026-04-22 03:47 | 21.49403 | -102.50231 | 27023 ft | 453 kts | 221° |
| 2026-04-22 03:47 | 21.46914 | -102.52322 | 26418 ft | 456 kts | 221° |
| 2026-04-22 03:48 | 21.45258 | -102.53715 | 26032 ft | 457 kts | 221° |
| 2026-04-22 03:48 | 21.42757 | -102.55817 | 25460 ft | 453 kts | 221° |
| 2026-04-22 03:48 | 21.40298 | -102.57879 | 24929 ft | 445 kts | 221° |
| 2026-04-22 03:48 | 21.37733 | -102.59707 | 24053 ft | 449 kts | 209° |
| 2026-04-22 03:49 | 21.34939 | -102.61102 | 23406 ft | 431 kts | 208° |
| 2026-04-22 03:49 | 21.31430 | -102.62830 | 22665 ft | 406 kts | 207° |
| 2026-04-22 03:49 | 21.29720 | -102.63672 | 22312 ft | 395 kts | 207° |
| 2026-04-22 03:49 | 21.27308 | -102.64863 | 21815 ft | 380 kts | 207° |
| 2026-04-22 03:50 | 21.24912 | -102.66050 | 21307 ft | 367 kts | 207° |
| 2026-04-22 03:50 | 21.22638 | -102.67180 | 20829 ft | 355 kts | 207° |
| 2026-04-22 03:50 | 21.20464 | -102.68264 | 20369 ft | 344 kts | 207° |
| 2026-04-22 03:50 | 21.18320 | -102.69331 | 19920 ft | 335 kts | 207° |
| 2026-04-22 03:51 | 21.16230 | -102.70371 | 19479 ft | 327 kts | 206° |
| 2026-04-22 03:51 | 21.14187 | -102.71386 | 19050 ft | 320 kts | 207° |
| 2026-04-22 03:51 | 21.12187 | -102.72379 | 18631 ft | 314 kts | 205° |
| 2026-04-22 03:51 | 21.10204 | -102.73363 | 17964 ft | 315 kts | 206° |
| 2026-04-22 03:52 | 21.08228 | -102.74344 | 17480 ft | 310 kts | 206° |
| 2026-04-22 03:52 | 21.06292 | -102.75303 | 17071 ft | 303 kts | 205° |
| 2026-04-22 03:52 | 21.04403 | -102.76236 | 16678 ft | 296 kts | 205° |
| 2026-04-22 03:52 | 21.02553 | -102.77148 | 16294 ft | 290 kts | 206° |
| 2026-04-22 03:53 | 21.00730 | -102.78049 | 15912 ft | 287 kts | 206° |
| 2026-04-22 03:53 | 20.98876 | -102.78830 | 15534 ft | 286 kts | 197° |
| 2026-04-22 03:53 | 20.96924 | -102.79217 | 15152 ft | 285 kts | 185° |
| 2026-04-22 03:53 | 20.94940 | -102.79279 | 14836 ft | 285 kts | 186° |
| 2026-04-22 03:54 | 20.93060 | -102.79854 | 14751 ft | 282 kts | 203° |
| 2026-04-22 03:54 | 20.91234 | -102.80652 | 14702 ft | 284 kts | 203° |
| 2026-04-22 03:54 | 20.89405 | -102.81429 | 14503 ft | 282 kts | 202° |
| 2026-04-22 03:54 | 20.87576 | -102.82191 | 14248 ft | 281 kts | 201° |
| 2026-04-22 03:55 | 20.85780 | -102.82930 | 14134 ft | 273 kts | 201° |
| 2026-04-22 03:55 | 20.84042 | -102.83642 | 13941 ft | 269 kts | 202° |
| 2026-04-22 03:55 | 20.82293 | -102.84356 | 13665 ft | 269 kts | 201° |
| 2026-04-22 03:55 | 20.80531 | -102.85079 | 13400 ft | 267 kts | 201° |
| 2026-04-22 03:56 | 20.78826 | -102.85779 | 13146 ft | 265 kts | 202° |
| 2026-04-22 03:56 | 20.77106 | -102.86485 | 12904 ft | 264 kts | 202° |
| 2026-04-22 03:56 | 20.75396 | -102.87185 | 12830 ft | 263 kts | 201° |
| 2026-04-22 03:56 | 20.73680 | -102.87886 | 12800 ft | 264 kts | 202° |
| 2026-04-22 03:57 | 20.71967 | -102.88585 | 12542 ft | 263 kts | 202° |
| 2026-04-22 03:57 | 20.70260 | -102.89283 | 12274 ft | 262 kts | 202° |
| 2026-04-22 03:57 | 20.68557 | -102.89980 | 11897 ft | 266 kts | 203° |
| 2026-04-22 03:57 | 20.66783 | -102.90706 | 11355 ft | 277 kts | 202° |
| 2026-04-22 03:58 | 20.64977 | -102.91444 | 11019 ft | 279 kts | 204° |
| 2026-04-22 03:58 | 20.63161 | -102.92185 | 10711 ft | 280 kts | 202° |
| 2026-04-22 03:58 | 20.61344 | -102.92928 | 10432 ft | 279 kts | 203° |
| 2026-04-22 03:58 | 20.59539 | -102.93665 | 10223 ft | 275 kts | 203° |
| 2026-04-22 03:59 | 20.57792 | -102.94377 | 10102 ft | 261 kts | 204° |
| 2026-04-22 03:59 | 20.56154 | -102.95041 | 9956 ft | 245 kts | 203° |
| 2026-04-22 03:59 | 20.54581 | -102.95682 | 9610 ft | 239 kts | 204° |
| 2026-04-22 03:59 | 20.53064 | -102.96301 | 9399 ft | 229 kts | 206° |
| 2026-04-22 04:00 | 20.51610 | -102.96895 | 9314 ft | 227 kts | 205° |
| 2026-04-22 04:00 | 20.50149 | -102.97492 | 9186 ft | 223 kts | 204° |
| 2026-04-22 04:00 | 20.48699 | -102.98084 | 9059 ft | 220 kts | 206° |
| 2026-04-22 04:00 | 20.47298 | -102.98655 | 8945 ft | 213 kts | 205° |
| 2026-04-22 04:01 | 20.45917 | -102.99220 | 8860 ft | 212 kts | 204° |
| 2026-04-22 04:01 | 20.44545 | -102.99781 | 8820 ft | 211 kts | 205° |
| 2026-04-22 04:01 | 20.43212 | -103.00416 | 8827 ft | 208 kts | 215° |
| 2026-04-22 04:01 | 20.42151 | -103.01424 | 8829 ft | 201 kts | 235° |
| 2026-04-22 04:02 | 20.41505 | -103.02640 | 8827 ft | 181 kts | 253° |
| 2026-04-22 04:02 | 20.41247 | -103.03932 | 8842 ft | 176 kts | 269° |
| 2026-04-22 04:02 | 20.41353 | -103.05223 | 8841 ft | 175 kts | 284° |
| 2026-04-22 04:02 | 20.41768 | -103.06384 | 8821 ft | 158 kts | 294° |
| 2026-04-22 04:03 | 20.42218 | -103.07450 | 8758 ft | 158 kts | 294° |
| 2026-04-22 04:03 | 20.42666 | -103.08514 | 8603 ft | 157 kts | 294° |
| 2026-04-22 04:03 | 20.43114 | -103.09576 | 8441 ft | 156 kts | 294° |
| 2026-04-22 04:03 | 20.43555 | -103.10621 | 8255 ft | 156 kts | 294° |
| 2026-04-22 04:04 | 20.44002 | -103.11681 | 8063 ft | 155 kts | 293° |
| 2026-04-22 04:04 | 20.44437 | -103.12712 | 8004 ft | 155 kts | 293° |
| 2026-04-22 04:04 | 20.44879 | -103.13759 | 7829 ft | 154 kts | 294° |
| 2026-04-22 04:04 | 20.45317 | -103.14798 | 7659 ft | 153 kts | 293° |
| 2026-04-22 04:05 | 20.45748 | -103.15821 | 7488 ft | 150 kts | 294° |
| 2026-04-22 04:05 | 20.46176 | -103.16836 | 7323 ft | 149 kts | 294° |
| 2026-04-22 04:05 | 20.46602 | -103.17847 | 7159 ft | 149 kts | 294° |
| 2026-04-22 04:05 | 20.47027 | -103.18856 | 6991 ft | 148 kts | 293° |
| 2026-04-22 04:06 | 20.47447 | -103.19855 | 6835 ft | 147 kts | 293° |
| 2026-04-22 04:06 | 20.47865 | -103.20845 | 6672 ft | 146 kts | 292° |
| 2026-04-22 04:06 | 20.48278 | -103.21827 | 6501 ft | 144 kts | 292° |
| 2026-04-22 04:06 | 20.48686 | -103.22797 | 6340 ft | 143 kts | 292° |
| 2026-04-22 04:07 | 20.49097 | -103.23774 | 6181 ft | 145 kts | 291° |
| 2026-04-22 04:07 | 20.49512 | -103.24761 | 6023 ft | 147 kts | 292° |
| 2026-04-22 04:07 | 20.49922 | -103.25739 | 5775 ft | 141 kts | 291° |
| 2026-04-22 04:07 | 20.50326 | -103.26686 | 5602 ft | 142 kts | 293° |
| 2026-04-22 04:08 | 20.50738 | -103.27635 | 5437 ft | 141 kts | 289° |
| 2026-04-22 04:08 | 20.51129 | -103.28595 | 5253 ft | 145 kts | 290° |
| 2026-04-22 04:08 | 20.51563 | -103.29618 | 5037 ft | 156 kts | 291° |
| 2026-04-22 04:08 | 20.51931 | -103.30552 | 5027 ft | 103 kts | 294° |
| 2026-04-22 04:09 | 20.52112 | -103.30947 | 5031 ft | 22 kts | 293° |
| 2026-04-22 04:09 | 20.52179 | -103.31082 | 5032 ft | 19 kts | 308° |
| 2026-04-22 04:09 | 20.52234 | -103.31077 | 5030 ft | 5 kts | 44° |
| 2026-04-22 04:09 | 20.52286 | -103.31048 | 5031 ft | 8 kts | 28° |
| 2026-04-22 04:10 | 20.52307 | -103.31036 | 5030 ft | 8 kts | 30° |
| 2026-04-22 04:10 | 20.52317 | -103.31029 | 5030 ft | 0 kts | 31° |
| 2026-04-22 04:11 | 20.52319 | -103.31028 | 5030 ft | 3 kts | 31° |
| 2026-04-22 04:11 | 20.52378 | -103.30991 | 5031 ft | 16 kts | 30° |
| 2026-04-22 04:11 | 20.52484 | -103.30924 | 5030 ft | 13 kts | 28° |
| 2026-04-22 04:11 | 20.52514 | -103.30896 | 5029 ft | 5 kts | 62° |
| 2026-04-22 04:12 | 20.52509 | -103.30860 | 5029 ft | 5 kts | 101° |
| 2026-04-22 04:12 | 20.52498 | -103.30819 | 5027 ft | 6 kts | 114° |
| 2026-04-22 04:12 | 20.52478 | -103.30771 | 5029 ft | 8 kts | 114° |
| 2026-04-22 04:12 | 20.52456 | -103.30716 | 5029 ft | 9 kts | 113° |
| 2026-04-22 04:13 | 20.52429 | -103.30652 | 5029 ft | 10 kts | 114° |
| 2026-04-22 04:13 | 20.52400 | -103.30581 | 5029 ft | 11 kts | 113° |
| 2026-04-22 04:13 | 20.52367 | -103.30505 | 5029 ft | 12 kts | 114° |
| 2026-04-22 04:13 | 20.52334 | -103.30419 | 5029 ft | 14 kts | 112° |
| 2026-04-22 04:14 | 20.52288 | -103.30312 | 5029 ft | 18 kts | 115° |
| 2026-04-22 04:14 | 20.52231 | -103.30178 | 5029 ft | 22 kts | 114° |
| 2026-04-22 04:14 | 20.52171 | -103.30037 | 5027 ft | 18 kts | 115° |
| 2026-04-22 04:14 | 20.52118 | -103.29910 | 5029 ft | 19 kts | 114° |
| 2026-04-22 04:15 | 20.52118 | -103.29803 | 5027 ft | 14 kts | 47° |
| 2026-04-22 04:15 | 20.52208 | -103.29761 | 5029 ft | 15 kts | 2° |
| 2026-04-22 04:15 | 20.52269 | -103.29821 | 5029 ft | 13 kts | 298° |
| 2026-04-22 04:15 | 20.52293 | -103.29865 | 5029 ft | 3 kts | 310° |
| 2026-04-22 04:16 | 20.52315 | -103.29874 | 5029 ft | 4 kts | 354° |
| 2026-04-22 04:16 | 20.52361 | -103.29861 | 5029 ft | 1 kts | 18° |
| 2026-04-22 04:16 | 20.52366 | -103.29860 | 5029 ft | 0 kts | 18° |
| 2026-04-22 04:20 | 20.52366 | -103.29859 | 5029 ft | 0 kts | 18° |